sensor_id;sensor_type;location;lat;lon;timestamp;pressure;altitude;pressure_sealevel;temperature;humidity
77739;BME280;66904;59.926;30.404;2024-03-02T00:00:51;102766.25;;;4.51;70.45
77739;BME280;66904;59.926;30.404;2024-03-02T00:06:02;102760.19;;;4.49;70.58
77739;BME280;66904;59.926;30.404;2024-03-02T00:11:13;102765.31;;;4.57;70.67
77739;BME280;66904;59.926;30.404;2024-03-02T00:16:30;102768.75;;;4.60;70.60
77739;BME280;66904;59.926;30.404;2024-03-02T00:21:41;102773.94;;;4.62;70.32
77739;BME280;66904;59.926;30.404;2024-03-02T00:26:52;102761.72;;;4.61;70.28
77739;BME280;66904;59.926;30.404;2024-03-02T00:32:03;102765.19;;;4.63;70.62
77739;BME280;66904;59.926;30.404;2024-03-02T00:37:14;102764.28;;;4.64;70.20
77739;BME280;66904;59.926;30.404;2024-03-02T00:42:25;102758.28;;;4.57;69.74
77739;BME280;66904;59.926;30.404;2024-03-02T00:47:39;102764.38;;;4.59;69.93
77739;BME280;66904;59.926;30.404;2024-03-02T00:52:49;102756.53;;;4.59;70.47
77739;BME280;66904;59.926;30.404;2024-03-02T00:58:00;102757.28;;;4.64;70.32
77739;BME280;66904;59.926;30.404;2024-03-02T01:03:11;102759.03;;;4.67;70.08
77739;BME280;66904;59.926;30.404;2024-03-02T01:08:21;102757.25;;;4.67;70.08
77739;BME280;66904;59.926;30.404;2024-03-02T01:13:32;102765.09;;;4.69;70.36
77739;BME280;66904;59.926;30.404;2024-03-02T01:18:43;102763.34;;;4.69;70.38
77739;BME280;66904;59.926;30.404;2024-03-02T01:23:54;102758.16;;;4.66;70.23
77739;BME280;66904;59.926;30.404;2024-03-02T01:29:04;102756.41;;;4.67;70.26
77739;BME280;66904;59.926;30.404;2024-03-02T01:34:15;102759.03;;;4.67;70.19
77739;BME280;66904;59.926;30.404;2024-03-02T01:39:26;102758.13;;;4.68;70.29
77739;BME280;66904;59.926;30.404;2024-03-02T01:44:36;102750.25;;;4.69;70.15
77739;BME280;66904;59.926;30.404;2024-03-02T01:49:47;102756.28;;;4.73;69.85
77739;BME280;66904;59.926;30.404;2024-03-02T01:54:58;102746.69;;;4.74;70.28
77739;BME280;66904;59.926;30.404;2024-03-02T02:00:09;102737.94;;;4.73;70.38
77739;BME280;66904;59.926;30.404;2024-03-02T02:05:20;102731.91;;;4.68;70.14
77739;BME280;66904;59.926;30.404;2024-03-02T02:10:31;102748.44;;;4.73;70.21
77739;BME280;66904;59.926;30.404;2024-03-02T02:15:41;102754.50;;;4.75;70.39
77739;BME280;66904;59.926;30.404;2024-03-02T02:20:52;102757.06;;;4.80;70.42
77739;BME280;66904;59.926;30.404;2024-03-02T02:26:03;102766.59;;;4.82;69.99
77739;BME280;66904;59.926;30.404;2024-03-02T02:31:14;102765.75;;;4.82;70.35
77739;BME280;66904;59.926;30.404;2024-03-02T02:36:24;102756.94;;;4.84;70.02
77739;BME280;66904;59.926;30.404;2024-03-02T02:41:35;102762.13;;;4.89;70.34
77739;BME280;66904;59.926;30.404;2024-03-02T02:46:46;102778.72;;;4.89;70.27
77739;BME280;66904;59.926;30.404;2024-03-02T02:51:56;102779.56;;;4.91;69.55
77739;BME280;66904;59.926;30.404;2024-03-02T02:57:07;102776.97;;;4.90;70.48
77739;BME280;66904;59.926;30.404;2024-03-02T03:02:18;102765.53;;;4.94;69.45
77739;BME280;66904;59.926;30.404;2024-03-02T03:07:28;102759.44;;;4.93;70.28
77739;BME280;66904;59.926;30.404;2024-03-02T03:12:39;102755.00;;;4.95;70.12
77739;BME280;66904;59.926;30.404;2024-03-02T03:17:51;102758.50;;;4.96;69.89
77739;BME280;66904;59.926;30.404;2024-03-02T03:23:02;102762.88;;;4.95;70.00
77739;BME280;66904;59.926;30.404;2024-03-02T03:28:14;102764.63;;;4.95;69.78
77739;BME280;66904;59.926;30.404;2024-03-02T03:33:25;102760.25;;;4.97;69.97
77739;BME280;66904;59.926;30.404;2024-03-02T03:38:35;102745.38;;;4.96;70.33
77739;BME280;66904;59.926;30.404;2024-03-02T03:43:46;102750.44;;;5.05;69.59
77739;BME280;66904;59.926;30.404;2024-03-02T03:48:57;102755.63;;;5.08;70.02
77739;BME280;66904;59.926;30.404;2024-03-02T03:54:08;102753.06;;;5.06;69.91
77739;BME280;66904;59.926;30.404;2024-03-02T03:59:18;102748.63;;;5.08;69.93
77739;BME280;66904;59.926;30.404;2024-03-02T04:04:29;102751.25;;;5.10;70.06
77739;BME280;66904;59.926;30.404;2024-03-02T04:09:40;102746.00;;;5.10;69.73
77739;BME280;66904;59.926;30.404;2024-03-02T04:14:51;102755.63;;;5.09;69.72
77739;BME280;66904;59.926;30.404;2024-03-02T04:20:02;102745.22;;;5.05;70.05
77739;BME280;66904;59.926;30.404;2024-03-02T04:25:15;102740.91;;;5.01;69.46
77739;BME280;66904;59.926;30.404;2024-03-02T04:30:25;102744.47;;;4.98;69.95
77739;BME280;66904;59.926;30.404;2024-03-02T04:35:37;102753.06;;;5.06;70.15
77739;BME280;66904;59.926;30.404;2024-03-02T04:40:48;102749.50;;;5.09;69.78
77739;BME280;66904;59.926;30.404;2024-03-02T04:45:59;102751.25;;;5.10;69.77
77739;BME280;66904;59.926;30.404;2024-03-02T04:51:09;102746.81;;;5.13;69.76
77739;BME280;66904;59.926;30.404;2024-03-02T04:56:21;102753.69;;;5.17;69.54
77739;BME280;66904;59.926;30.404;2024-03-02T05:01:54;102758.94;;;5.17;70.08
77739;BME280;66904;59.926;30.404;2024-03-02T05:07:05;102751.06;;;5.17;70.41
77739;BME280;66904;59.926;30.404;2024-03-02T05:12:16;102751.94;;;5.19;69.98
77739;BME280;66904;59.926;30.404;2024-03-02T05:17:45;102755.38;;;5.23;69.64
77739;BME280;66904;59.926;30.404;2024-03-02T05:22:56;102756.16;;;5.27;70.01
77739;BME280;66904;59.926;30.404;2024-03-02T05:28:07;102765.06;;;5.19;69.81
77739;BME280;66904;59.926;30.404;2024-03-02T05:33:17;102762.56;;;5.13;69.93
77739;BME280;66904;59.926;30.404;2024-03-02T05:38:28;102760.25;;;4.95;69.64
77739;BME280;66904;59.926;30.404;2024-03-02T05:43:39;102764.88;;;4.81;69.62
77739;BME280;66904;59.926;30.404;2024-03-02T05:48:50;102755.41;;;4.73;70.01
77739;BME280;66904;59.926;30.404;2024-03-02T05:54:00;102766.84;;;4.68;70.18
77739;BME280;66904;59.926;30.404;2024-03-02T05:59:11;102757.41;;;4.60;70.04
77739;BME280;66904;59.926;30.404;2024-03-02T06:04:26;102774.88;;;4.59;70.00
77739;BME280;66904;59.926;30.404;2024-03-02T06:09:37;102761.88;;;4.53;70.44
77739;BME280;66904;59.926;30.404;2024-03-02T06:14:48;102763.53;;;4.57;70.33
77739;BME280;66904;59.926;30.404;2024-03-02T06:19:58;102765.16;;;4.66;70.41
77739;BME280;66904;59.926;30.404;2024-03-02T06:25:09;102761.66;;;4.67;70.50
77739;BME280;66904;59.926;30.404;2024-03-02T06:30:20;102770.16;;;4.78;70.29
77739;BME280;66904;59.926;30.404;2024-03-02T06:35:31;102757.19;;;4.72;70.44
77739;BME280;66904;59.926;30.404;2024-03-02T06:40:41;102761.38;;;4.81;70.54
77739;BME280;66904;59.926;30.404;2024-03-02T06:45:52;102770.97;;;4.82;70.12
77739;BME280;66904;59.926;30.404;2024-03-02T06:51:03;102760.63;;;4.76;70.21
77739;BME280;66904;59.926;30.404;2024-03-02T06:56:14;102778.06;;;4.77;69.83
77739;BME280;66904;59.926;30.404;2024-03-02T07:01:25;102778.19;;;4.69;70.19
77739;BME280;66904;59.926;30.404;2024-03-02T07:06:36;102777.44;;;4.61;70.07
77739;BME280;66904;59.926;30.404;2024-03-02T07:11:47;102765.16;;;4.66;70.34
77739;BME280;66904;59.926;30.404;2024-03-02T07:16:58;102772.84;;;4.75;70.73
77739;BME280;66904;59.926;30.404;2024-03-02T07:22:08;102775.25;;;4.87;70.54
77739;BME280;66904;59.926;30.404;2024-03-02T07:27:19;102776.09;;;4.89;70.28
77739;BME280;66904;59.926;30.404;2024-03-02T07:32:30;102772.38;;;5.01;70.78
77739;BME280;66904;59.926;30.404;2024-03-02T07:37:42;102770.44;;;5.10;70.54
77739;BME280;66904;59.926;30.404;2024-03-02T07:42:53;102765.84;;;5.23;70.42
77739;BME280;66904;59.926;30.404;2024-03-02T07:48:04;102772.91;;;5.19;70.35
77739;BME280;66904;59.926;30.404;2024-03-02T07:53:15;102780.09;;;5.10;70.07
77739;BME280;66904;59.926;30.404;2024-03-02T07:58:25;102775.75;;;5.07;70.07
77739;BME280;66904;59.926;30.404;2024-03-02T08:03:37;102779.34;;;5.03;69.97
77739;BME280;66904;59.926;30.404;2024-03-02T08:08:48;102775.00;;;5.01;70.07
77739;BME280;66904;59.926;30.404;2024-03-02T08:13:58;102778.59;;;4.95;70.18
77739;BME280;66904;59.926;30.404;2024-03-02T08:19:09;102782.22;;;4.90;70.46
77739;BME280;66904;59.926;30.404;2024-03-02T08:24:20;102770.13;;;4.81;70.57
77739;BME280;66904;59.926;30.404;2024-03-02T08:29:31;102771.69;;;4.91;70.13
77739;BME280;66904;59.926;30.404;2024-03-02T08:34:42;102779.34;;;5.03;70.47
77739;BME280;66904;59.926;30.404;2024-03-02T08:39:52;102785.97;;;5.22;70.80
77739;BME280;66904;59.926;30.404;2024-03-02T08:45:03;102791.09;;;5.30;70.06
77739;BME280;66904;59.926;30.404;2024-03-02T08:50:15;102799.16;;;5.19;70.13
77739;BME280;66904;59.926;30.404;2024-03-02T08:55:25;102795.78;;;5.13;70.49
77739;BME280;66904;59.926;30.404;2024-03-02T09:00:36;102792.97;;;5.24;70.75
77739;BME280;66904;59.926;30.404;2024-03-02T09:05:47;102783.34;;;5.22;70.82
77739;BME280;66904;59.926;30.404;2024-03-02T09:10:58;102793.75;;;5.27;70.57
77739;BME280;66904;59.926;30.404;2024-03-02T09:16:09;102784.91;;;5.33;69.98
77739;BME280;66904;59.926;30.404;2024-03-02T09:21:21;102782.41;;;5.25;69.82
77739;BME280;66904;59.926;30.404;2024-03-02T09:26:33;102788.69;;;5.18;70.20
77739;BME280;66904;59.926;30.404;2024-03-02T09:31:43;102780.84;;;5.16;70.39
77739;BME280;66904;59.926;30.404;2024-03-02T09:36:54;102784.19;;;5.25;70.11
77739;BME280;66904;59.926;30.404;2024-03-02T09:42:05;102781.44;;;5.31;70.20
77739;BME280;66904;59.926;30.404;2024-03-02T09:47:16;102774.25;;;5.40;70.76
77739;BME280;66904;59.926;30.404;2024-03-02T09:52:27;102779.38;;;5.46;70.36
77739;BME280;66904;59.926;30.404;2024-03-02T09:57:38;102782.91;;;5.45;70.54
77739;BME280;66904;59.926;30.404;2024-03-02T10:02:49;102785.41;;;5.51;70.31
77739;BME280;66904;59.926;30.404;2024-03-02T10:08:01;102780.19;;;5.50;69.89
77739;BME280;66904;59.926;30.404;2024-03-02T10:13:13;102781.91;;;5.51;69.86
77739;BME280;66904;59.926;30.404;2024-03-02T10:18:26;102781.03;;;5.50;69.88
77739;BME280;66904;59.926;30.404;2024-03-02T10:23:39;102787.03;;;5.57;70.50
77739;BME280;66904;59.926;30.404;2024-03-02T10:28:50;102777.38;;;5.57;70.26
77739;BME280;66904;59.926;30.404;2024-03-02T10:34:10;102772.31;;;5.50;70.05
77739;BME280;66904;59.926;30.404;2024-03-02T10:39:21;102778.38;;;5.53;70.36
77739;BME280;66904;59.926;30.404;2024-03-02T10:44:32;102787.00;;;5.58;69.40
77739;BME280;66904;59.926;30.404;2024-03-02T10:49:45;102780.81;;;5.61;69.50
77739;BME280;66904;59.926;30.404;2024-03-02T10:54:57;102781.41;;;5.75;69.49
77739;BME280;66904;59.926;30.404;2024-03-02T11:00:11;102776.63;;;5.94;69.67
77739;BME280;66904;59.926;30.404;2024-03-02T11:05:32;102774.72;;;6.02;69.52
77739;BME280;66904;59.926;30.404;2024-03-02T11:16:12;102761.03;;;5.88;69.10
77739;BME280;66904;59.926;30.404;2024-03-02T11:21:26;102763.19;;;6.07;69.00
77739;BME280;66904;59.926;30.404;2024-03-02T11:26:38;102767.72;;;6.01;69.49
77739;BME280;66904;59.926;30.404;2024-03-02T11:31:59;102760.78;;;6.00;69.36
77739;BME280;66904;59.926;30.404;2024-03-02T11:37:13;102771.22;;;6.03;68.97
77739;BME280;66904;59.926;30.404;2024-03-02T11:42:25;102767.81;;;5.98;68.87
77739;BME280;66904;59.926;30.404;2024-03-02T11:47:36;102761.81;;;5.93;68.76
77739;BME280;66904;59.926;30.404;2024-03-02T11:52:47;102769.53;;;5.99;68.82
77739;BME280;66904;59.926;30.404;2024-03-02T11:57:59;102776.31;;;6.09;68.92
77739;BME280;66904;59.926;30.404;2024-03-02T12:03:13;102777.19;;;6.09;68.88
77739;BME280;66904;59.926;30.404;2024-03-02T12:08:26;102772.81;;;6.08;68.76
77739;BME280;66904;59.926;30.404;2024-03-02T12:13:37;102772.72;;;6.13;68.51
77739;BME280;66904;59.926;30.404;2024-03-02T12:18:47;102771.16;;;6.04;69.00
77739;BME280;66904;59.926;30.404;2024-03-02T12:23:58;102764.31;;;5.97;69.32
77739;BME280;66904;59.926;30.404;2024-03-02T12:29:09;102771.16;;;6.04;69.50
77739;BME280;66904;59.926;30.404;2024-03-02T12:34:21;102769.19;;;6.14;68.92
77739;BME280;66904;59.926;30.404;2024-03-02T12:39:32;102759.38;;;6.22;68.30
77739;BME280;66904;59.926;30.404;2024-03-02T12:44:43;102765.50;;;6.21;68.86
77739;BME280;66904;59.926;30.404;2024-03-02T12:49:54;102757.81;;;6.13;69.39
77739;BME280;66904;59.926;30.404;2024-03-02T12:55:06;102760.19;;;6.24;68.32
77739;BME280;66904;59.926;30.404;2024-03-02T13:00:19;102755.69;;;6.29;68.49
77739;BME280;66904;59.926;30.404;2024-03-02T13:05:30;102752.19;;;6.29;69.22
77739;BME280;66904;59.926;30.404;2024-03-02T13:10:42;102749.59;;;6.27;68.25
77739;BME280;66904;59.926;30.404;2024-03-02T13:15:56;102753.00;;;6.32;68.42
77739;BME280;66904;59.926;30.404;2024-03-02T13:21:07;102743.38;;;6.31;68.94
77739;BME280;66904;59.926;30.404;2024-03-02T13:26:18;102745.59;;;6.48;68.79
77739;BME280;66904;59.926;30.404;2024-03-02T13:31:29;102752.44;;;6.53;67.83
77739;BME280;66904;59.926;30.404;2024-03-02T13:36:40;102749.09;;;6.48;67.93
77739;BME280;66904;59.926;30.404;2024-03-02T13:41:50;102756.22;;;6.43;67.78
77739;BME280;66904;59.926;30.404;2024-03-02T13:47:12;102752.88;;;6.37;68.47
77739;BME280;66904;59.926;30.404;2024-03-02T13:52:23;102750.28;;;6.35;67.75
77739;BME280;66904;59.926;30.404;2024-03-02T13:57:36;102756.09;;;6.49;67.75
77739;BME280;66904;59.926;30.404;2024-03-02T14:02:47;102747.16;;;6.55;68.01
77739;BME280;66904;59.926;30.404;2024-03-02T14:08:00;102749.75;;;6.56;68.37
77739;BME280;66904;59.926;30.404;2024-03-02T14:13:14;102748.53;;;6.69;68.00
77739;BME280;66904;59.926;30.404;2024-03-02T14:18:27;102743.13;;;6.75;67.72
77739;BME280;66904;59.926;30.404;2024-03-02T14:23:38;102741.41;;;6.74;66.79
77739;BME280;66904;59.926;30.404;2024-03-02T14:28:48;102750.97;;;6.77;67.85
77739;BME280;66904;59.926;30.404;2024-03-02T14:34:00;102741.22;;;6.81;68.33
77739;BME280;66904;59.926;30.404;2024-03-02T14:39:11;102738.66;;;6.79;68.24
77739;BME280;66904;59.926;30.404;2024-03-02T14:44:21;102741.13;;;6.85;66.66
77739;BME280;66904;59.926;30.404;2024-03-02T14:49:33;102741.03;;;6.88;68.07
77739;BME280;66904;59.926;30.404;2024-03-02T14:54:46;102740.19;;;6.88;67.60
77739;BME280;66904;59.926;30.404;2024-03-02T14:59:57;102730.53;;;6.88;67.39
77739;BME280;66904;59.926;30.404;2024-03-02T15:05:08;102728.75;;;6.89;67.37
77739;BME280;66904;59.926;30.404;2024-03-02T15:10:18;102728.75;;;6.89;66.88
77739;BME280;66904;59.926;30.404;2024-03-02T15:15:29;102739.28;;;6.89;67.29
77739;BME280;66904;59.926;30.404;2024-03-02T15:20:40;102738.41;;;6.88;67.30
77739;BME280;66904;59.926;30.404;2024-03-02T15:25:51;102734.88;;;6.89;66.70
77739;BME280;66904;59.926;30.404;2024-03-02T15:31:02;102740.00;;;6.94;67.00
77739;BME280;66904;59.926;30.404;2024-03-02T15:36:13;102743.50;;;6.94;67.03
77739;BME280;66904;59.926;30.404;2024-03-02T15:41:24;102740.00;;;6.94;66.49
77739;BME280;66904;59.926;30.404;2024-03-02T15:46:35;102740.88;;;6.94;67.24
77739;BME280;66904;59.926;30.404;2024-03-02T15:51:46;102742.59;;;6.95;67.11
77739;BME280;66904;59.926;30.404;2024-03-02T15:56:57;102737.34;;;6.95;67.08
77739;BME280;66904;59.926;30.404;2024-03-02T16:02:08;102746.16;;;6.93;66.53
77739;BME280;66904;59.926;30.404;2024-03-02T16:07:19;102738.28;;;6.93;66.67
77739;BME280;66904;59.926;30.404;2024-03-02T16:12:30;102731.38;;;6.89;67.12
77739;BME280;66904;59.926;30.404;2024-03-02T16:17:40;102735.00;;;6.85;66.91
77739;BME280;66904;59.926;30.404;2024-03-02T16:22:51;102726.50;;;6.75;65.79
77739;BME280;66904;59.926;30.404;2024-03-02T16:28:03;102739.19;;;6.58;66.64
77739;BME280;66904;59.926;30.404;2024-03-02T16:33:14;102733.22;;;6.53;66.52
77739;BME280;66904;59.926;30.404;2024-03-02T16:38:24;102728.84;;;6.52;66.45
77739;BME280;66904;59.926;30.404;2024-03-02T16:43:35;102721.91;;;6.49;66.57
77739;BME280;66904;59.926;30.404;2024-03-02T16:48:46;102723.53;;;6.53;67.02
77739;BME280;66904;59.926;30.404;2024-03-02T16:53:57;102712.31;;;6.47;66.87
77739;BME280;66904;59.926;30.404;2024-03-02T16:59:08;102726.56;;;6.38;66.48
77739;BME280;66904;59.926;30.404;2024-03-02T17:04:19;102709.22;;;6.31;65.73
77739;BME280;66904;59.926;30.404;2024-03-02T17:09:30;102721.41;;;6.34;66.24
77739;BME280;66904;59.926;30.404;2024-03-02T17:14:40;102724.88;;;6.36;66.45
77739;BME280;66904;59.926;30.404;2024-03-02T17:19:51;102722.25;;;6.36;66.16
77739;BME280;66904;59.926;30.404;2024-03-02T17:25:02;102731.09;;;6.32;65.75
77739;BME280;66904;59.926;30.404;2024-03-02T17:30:14;102728.47;;;6.32;66.96
77739;BME280;66904;59.926;30.404;2024-03-02T17:35:25;102724.19;;;6.28;66.03
77739;BME280;66904;59.926;30.404;2024-03-02T17:40:36;102729.25;;;6.35;65.75
77739;BME280;66904;59.926;30.404;2024-03-02T17:45:46;102732.97;;;6.27;66.18
77739;BME280;66904;59.926;30.404;2024-03-02T17:50:57;102731.59;;;6.12;66.35
77739;BME280;66904;59.926;30.404;2024-03-02T17:56:11;102735.38;;;5.99;65.63
77739;BME280;66904;59.926;30.404;2024-03-02T18:01:22;102738.97;;;5.95;66.17
77739;BME280;66904;59.926;30.404;2024-03-02T18:06:33;102739.69;;;6.03;66.51
77739;BME280;66904;59.926;30.404;2024-03-02T18:11:44;102746.72;;;6.01;66.21
77739;BME280;66904;59.926;30.404;2024-03-02T18:16:55;102739.06;;;5.92;66.00
77739;BME280;66904;59.926;30.404;2024-03-02T18:22:06;102736.38;;;5.93;65.70
77739;BME280;66904;59.926;30.404;2024-03-02T18:27:17;102738.25;;;5.90;66.28
77739;BME280;66904;59.926;30.404;2024-03-02T18:32:28;102740.13;;;5.82;66.13
77739;BME280;66904;59.926;30.404;2024-03-02T18:37:39;102742.97;;;5.72;65.95
77739;BME280;66904;59.926;30.404;2024-03-02T18:42:50;102736.84;;;5.70;66.99
77739;BME280;66904;59.926;30.404;2024-03-02T18:48:00;102729.63;;;5.80;66.52
77739;BME280;66904;59.926;30.404;2024-03-02T18:53:12;102720.88;;;5.81;66.73
77739;BME280;66904;59.926;30.404;2024-03-02T18:58:23;102734.75;;;5.88;65.81
77739;BME280;66904;59.926;30.404;2024-03-02T19:03:35;102732.19;;;5.86;66.03
77739;BME280;66904;59.926;30.404;2024-03-02T19:08:46;102741.78;;;5.87;66.77
77739;BME280;66904;59.926;30.404;2024-03-02T19:13:57;102740.06;;;5.85;67.04
77739;BME280;66904;59.926;30.404;2024-03-02T19:19:08;102737.28;;;5.92;66.17
77739;BME280;66904;59.926;30.404;2024-03-02T19:24:18;102737.16;;;5.97;66.56
77739;BME280;66904;59.926;30.404;2024-03-02T19:29:31;102744.81;;;6.07;66.03
77739;BME280;66904;59.926;30.404;2024-03-02T19:34:42;102741.06;;;6.17;66.51
77739;BME280;66904;59.926;30.404;2024-03-02T19:39:53;102738.19;;;6.28;65.68
77739;BME280;66904;59.926;30.404;2024-03-02T19:45:04;102734.53;;;6.34;66.54
77739;BME280;66904;59.926;30.404;2024-03-02T19:50:17;102745.91;;;6.36;66.48
77739;BME280;66904;59.926;30.404;2024-03-02T19:55:28;102737.06;;;6.38;65.77
77739;BME280;66904;59.926;30.404;2024-03-02T20:00:40;102743.03;;;6.45;66.49
77739;BME280;66904;59.926;30.404;2024-03-02T20:05:51;102748.22;;;6.48;66.15
77739;BME280;66904;59.926;30.404;2024-03-02T20:11:03;102751.53;;;6.56;66.10
77739;BME280;66904;59.926;30.404;2024-03-02T20:16:14;102754.09;;;6.59;66.30
77739;BME280;66904;59.926;30.404;2024-03-02T20:21:28;102756.66;;;6.60;66.14
77739;BME280;66904;59.926;30.404;2024-03-02T20:26:39;102761.03;;;6.61;65.59
77739;BME280;66904;59.926;30.404;2024-03-02T20:31:49;102761.97;;;6.59;65.95
77739;BME280;66904;59.926;30.404;2024-03-02T20:37:00;102756.75;;;6.57;65.59
77739;BME280;66904;59.926;30.404;2024-03-02T20:42:11;102765.53;;;6.56;65.43
77739;BME280;66904;59.926;30.404;2024-03-02T20:47:22;102764.63;;;6.57;65.56
77739;BME280;66904;59.926;30.404;2024-03-02T20:52:33;102764.69;;;6.56;65.80
77739;BME280;66904;59.926;30.404;2024-03-02T20:57:43;102763.81;;;6.55;65.01
77739;BME280;66904;59.926;30.404;2024-03-02T21:02:54;102768.16;;;6.56;66.35
77739;BME280;66904;59.926;30.404;2024-03-02T21:08:05;102762.97;;;6.53;65.16
77739;BME280;66904;59.926;30.404;2024-03-02T21:13:16;102767.41;;;6.51;65.76
77739;BME280;66904;59.926;30.404;2024-03-02T21:18:27;102765.69;;;6.50;65.50
77739;BME280;66904;59.926;30.404;2024-03-02T21:23:38;102770.03;;;6.53;65.78
77739;BME280;66904;59.926;30.404;2024-03-02T21:28:48;102764.72;;;6.54;66.25
77739;BME280;66904;59.926;30.404;2024-03-02T21:33:59;102763.03;;;6.50;65.27
77739;BME280;66904;59.926;30.404;2024-03-02T21:39:10;102771.72;;;6.54;65.97
77739;BME280;66904;59.926;30.404;2024-03-02T21:44:20;102764.78;;;6.51;65.55
77739;BME280;66904;59.926;30.404;2024-03-02T21:49:31;102768.31;;;6.50;65.02
77739;BME280;66904;59.926;30.404;2024-03-02T21:54:42;102764.00;;;6.48;66.37
77739;BME280;66904;59.926;30.404;2024-03-02T21:59:52;102771.00;;;6.47;65.80
77739;BME280;66904;59.926;30.404;2024-03-02T22:05:03;102763.97;;;6.49;65.40
77739;BME280;66904;59.926;30.404;2024-03-02T22:10:15;102765.75;;;6.47;65.19
77739;BME280;66904;59.926;30.404;2024-03-02T22:15:26;102747.59;;;6.38;65.93
77739;BME280;66904;59.926;30.404;2024-03-02T22:20:37;102768.47;;;6.44;65.38
77739;BME280;66904;59.926;30.404;2024-03-02T22:25:48;102767.66;;;6.42;65.33
77739;BME280;66904;59.926;30.404;2024-03-02T22:30:59;102770.22;;;6.44;65.79
77739;BME280;66904;59.926;30.404;2024-03-02T22:36:09;102778.09;;;6.44;65.69
77739;BME280;66904;59.926;30.404;2024-03-02T22:41:21;102786.91;;;6.43;65.37
77739;BME280;66904;59.926;30.404;2024-03-02T22:46:32;102787.75;;;6.43;65.44
77739;BME280;66904;59.926;30.404;2024-03-02T22:51:43;102786.00;;;6.44;65.09
77739;BME280;66904;59.926;30.404;2024-03-02T22:56:53;102784.31;;;6.41;65.93
77739;BME280;66904;59.926;30.404;2024-03-02T23:02:07;102785.19;;;6.42;65.64
77739;BME280;66904;59.926;30.404;2024-03-02T23:07:18;102782.56;;;6.42;66.06
77739;BME280;66904;59.926;30.404;2024-03-02T23:12:33;102786.03;;;6.42;65.89
77739;BME280;66904;59.926;30.404;2024-03-02T23:17:43;102779.06;;;6.41;65.82
77739;BME280;66904;59.926;30.404;2024-03-02T23:22:54;102772.09;;;6.39;65.69
77739;BME280;66904;59.926;30.404;2024-03-02T23:28:05;102767.72;;;6.39;66.01
77739;BME280;66904;59.926;30.404;2024-03-02T23:33:16;102765.09;;;6.39;66.16
77739;BME280;66904;59.926;30.404;2024-03-02T23:38:26;102772.06;;;6.40;65.44
77739;BME280;66904;59.926;30.404;2024-03-02T23:43:37;102767.72;;;6.39;65.94
77739;BME280;66904;59.926;30.404;2024-03-02T23:48:48;102771.25;;;6.38;65.77
77739;BME280;66904;59.926;30.404;2024-03-02T23:53:59;102764.31;;;6.34;66.16
77739;BME280;66904;59.926;30.404;2024-03-02T23:59:10;102768.69;;;6.35;65.89
